Kellysville, West Virginia
Current Conditions -  °F | °C
As of 3:11 AM on Thursday 27 Nov 2014 (Local Time) from KBLF Reporting Station
Haze Haze  
Wind Chill: 33°   Ceiling: 6000
Heat Index: 33°   Visibility: 1.7mi
Dew Point: 30°   Wind: 0mph
Humidity: 89%   Direction: NA
Pressure: 29.93"   Gusts: NA
Location:  37.34°N, 80.93°W
Report Text: KBLF 270811Z AUTO 00000KT 1 3/4SM BR OVC060 01/M01 A2993 RMK AO2 VIS 1/2V5 T00061011 $
Loading
Personal Weather Stations






























Interactive Weather Map New forecast layout! Learn more

10-Day Weather Forecast

Advertisements
Track Severe Weather on mobile